TAF Text Data
IDs:
Format:
Raw Decoded Include METAR

Data at: 0219 UTC 10 Dec 2022

TAF for:RPLC (Angeles City/Clark I, BA, PH) issued at 2300 UTC 09 Dec 2022
Text:TAF RPLC 092300Z 1000/1106 36005KT 9999 SCT020 BKN300 TX31/1006Z TN25/1021Z
Forecast period:0000 UTC 10 December 2022 to 0600 UTC 11 December 2022
Forecast type:FROM: standard forecast or significant change
Winds:from the N (360 degrees) at 6 MPH (5 knots; 2.6 m/s)
Visibility:6 or more sm (10+ km)
Ceiling:30000 feet AGL
Clouds: scattered clouds at 2000 feet AGL, broken clouds at 30000 feet AGL
Text:TEMPO 1000/1006 02008KT SCT020 BKN100
Forecast period:0000 to 0600 UTC 10 December 2022
Forecast type:TEMPORARY: The following changes expected for less than half the time period
Winds:from the NNE (20 degrees) at 9 MPH (8 knots; 4.1 m/s)
Ceiling:10000 feet AGL
Clouds: scattered clouds at 2000 feet AGL, broken clouds at 10000 feet AGL